Time;durP1;ratioP1;P1;durP2;ratioP2;P2;SDS_P1;SDS_P2;PMS_P1;PMS_P2;Temp;Humidity;BMP_temperature;BMP_pressure;BME280_temperature;BME280_humidity;BME280_pressure;Samples;Min_cycle;Max_cycle;Signal;HPM_P1;HPM_P2
2022/12/10 00:01:52;;;;;;;;;;;-0.80;99.90;;;;;;5021682;28;20016;-81
2022/12/10 00:04:18;;;;;;;;;;;-0.80;99.90;;;;;;5005961;28;19921;-85
2022/12/10 00:06:44;;;;;;;;;;;-0.80;99.90;;;;;;5022813;28;19929;-86
2022/12/10 00:09:11;;;;;;;;;;;-0.80;99.90;;;;;;5024685;28;19921;-84
2022/12/10 00:11:37;;;;;;;;;;;-0.90;99.90;;;;;;5019183;28;19921;-86
2022/12/10 00:14:03;;;;;;;;;;;-0.90;99.90;;;;;;5015945;28;20015;-84
2022/12/10 00:16:30;;;;;;;;;;;-0.90;99.90;;;;;;5014516;28;19921;-85
2022/12/10 00:18:56;;;;;;;;;;;-0.90;99.90;;;;;;5013881;28;20131;-81
2022/12/10 00:21:23;;;;;;;;;;;-1.00;99.90;;;;;;5015016;28;19940;-82
2022/12/10 00:23:49;;;;;;;;;;;-1.00;99.90;;;;;;5013940;28;19921;-81
2022/12/10 00:26:16;;;;;;;;;;;-1.10;99.90;;;;;;5014954;28;20020;-82
2022/12/10 00:28:42;;;;;;;;;;;-1.10;99.90;;;;;;5014150;28;19971;-81
2022/12/10 00:31:08;;;;;;;;;;;-1.20;99.90;;;;;;4997443;28;19921;-81
2022/12/10 00:33:34;;;;;;;;;;;-1.20;99.90;;;;;;5029732;28;19921;-81
2022/12/10 00:36:19;;;;;;;;;;;-1.20;99.90;;;;;;5014682;28;19928;-82
2022/12/10 00:38:45;;;;;;;;;;;-1.30;99.90;;;;;;5015496;28;20258;-86
2022/12/10 00:41:11;;;;;;;;;;;-1.30;99.90;;;;;;5013596;28;20428;-81
2022/12/10 00:43:37;;;;;;;;;;;-1.40;99.90;;;;;;5014947;28;20139;-81
2022/12/10 00:46:02;;;;;;;;;;;-1.40;99.90;;;;;;5013523;28;20048;-84
2022/12/10 00:48:28;;;;;;;;;;;-1.40;99.90;;;;;;5014899;28;20016;-87
2022/12/10 00:50:54;;;;;;;;;;;-1.50;99.90;;;;;;5014230;28;20023;-84
2022/12/10 00:53:20;;;;;;;;;;;-1.40;99.90;;;;;;5012983;28;19921;-82
2022/12/10 00:55:45;;;;;;;;;;;-1.50;99.90;;;;;;5013904;28;20403;-81
2022/12/10 00:58:11;;;;;;;;;;;-1.60;99.90;;;;;;5013086;28;19925;-81
2022/12/10 01:00:36;;;;;;;;;;;-1.50;99.90;;;;;;4996731;28;19925;-82
2022/12/10 01:03:02;;;;;;;;;;;-1.60;99.90;;;;;;5014203;28;20028;-84
2022/12/10 01:05:28;;;;;;;;;;;-1.60;99.90;;;;;;5013054;28;19972;-81
2022/12/10 01:07:53;;;;;;;;;;;-1.70;99.90;;;;;;5012687;28;19940;-81
2022/12/10 01:10:19;;;;;;;;;;;-1.70;99.90;;;;;;5013705;28;19975;-82
2022/12/10 01:12:45;;;;;;;;;;;-1.70;99.90;;;;;;5012867;28;20346;-82
2022/12/10 01:15:11;;;;;;;;;;;-1.70;99.90;;;;;;5012297;28;19925;-82
2022/12/10 01:17:37;;;;;;;;;;;-1.70;99.90;;;;;;5013158;28;20028;-81
2022/12/10 01:20:03;;;;;;;;;;;-1.70;99.90;;;;;;4996285;28;19976;-82
2022/12/10 01:22:28;;;;;;;;;;;-1.80;99.90;;;;;;5012940;28;19929;-86
2022/12/10 01:24:54;;;;;;;;;;;-1.80;99.90;;;;;;5013827;28;20008;-82
2022/12/10 01:27:19;;;;;;;;;;;-1.80;99.90;;;;;;5013891;28;20365;-84
2022/12/10 01:29:45;;;;;;;;;;;-1.80;99.90;;;;;;5014034;28;19931;-81
2022/12/10 01:32:11;;;;;;;;;;;-1.90;99.90;;;;;;5012903;28;19921;-81
2022/12/10 01:34:36;;;;;;;;;;;-1.90;99.90;;;;;;5012573;28;19922;-83
2022/12/10 01:37:02;;;;;;;;;;;-1.90;99.90;;;;;;5013835;28;19971;-83
2022/12/10 01:39:27;;;;;;;;;;;-1.90;99.90;;;;;;5012519;28;19922;-85
2022/12/10 01:41:54;;;;;;;;;;;-2.00;99.90;;;;;;5013526;28;20324;-82
2022/12/10 01:44:20;;;;;;;;;;;-2.00;99.90;;;;;;5013678;28;19984;-81
2022/12/10 01:46:46;;;;;;;;;;;-2.00;99.90;;;;;;5013191;28;19925;-81
2022/12/10 01:49:14;;;;;;;;;;;-2.00;99.90;;;;;;5012514;28;19921;-82
2022/12/10 01:51:41;;;;;;;;;;;-2.00;99.90;;;;;;5014393;28;19945;-84
2022/12/10 01:54:11;;;;;;;;;;;-1.90;99.90;;;;;;5013636;28;19928;-82
2022/12/10 01:56:38;;;;;;;;;;;-1.90;99.90;;;;;;5014509;28;19972;-81
2022/12/10 01:59:04;;;;;;;;;;;-1.80;99.90;;;;;;5013820;28;19967;-83
2022/12/10 02:01:36;;;;;;;;;;;-1.90;99.90;;;;;;5013611;28;19929;-81
2022/12/10 02:04:20;;;;;;;;;;;-1.80;99.90;;;;;;4998575;28;19944;-82
2022/12/10 02:07:06;;;;;;;;;;;-1.80;99.90;;;;;;5016441;28;19932;-82
2022/12/10 02:09:31;;;;;;;;;;;-1.70;99.90;;;;;;5018576;28;20371;-81
2022/12/10 02:12:16;;;;;;;;;;;-1.70;99.90;;;;;;5022871;28;19925;-84
2022/12/10 02:14:51;;;;;;;;;;;-1.80;99.90;;;;;;5023641;28;19922;-84
2022/12/10 02:17:23;;;;;;;;;;;-1.70;99.90;;;;;;5026027;28;20353;-83
2022/12/10 02:20:04;;;;;;;;;;;-1.80;99.90;;;;;;5007629;28;20280;-82
2022/12/10 02:22:33;;;;;;;;;;;-1.80;99.90;;;;;;5022912;28;19921;-82
2022/12/10 02:25:00;;;;;;;;;;;-1.80;99.90;;;;;;5019063;28;19965;-82
2022/12/10 02:27:29;;;;;;;;;;;-1.90;99.90;;;;;;5016105;28;20010;-82
2022/12/10 02:29:55;;;;;;;;;;;-1.90;99.90;;;;;;5017286;28;19921;-82
2022/12/10 02:32:23;;;;;;;;;;;-1.90;99.90;;;;;;5017335;28;19971;-82
2022/12/10 02:34:57;;;;;;;;;;;-1.90;99.90;;;;;;5015701;28;19921;-82
2022/12/10 02:37:28;;;;;;;;;;;-2.00;99.90;;;;;;5015988;28;19975;-81
2022/12/10 02:39:56;;;;;;;;;;;-2.00;99.90;;;;;;5017297;28;20015;-82
2022/12/10 02:42:24;;;;;;;;;;;-2.10;99.90;;;;;;4999536;28;19921;-83
2022/12/10 02:44:50;;;;;;;;;;;-2.00;99.90;;;;;;5016437;28;20411;-81
2022/12/10 02:47:18;;;;;;;;;;;-2.10;99.90;;;;;;5016855;28;19948;-81
2022/12/10 02:49:45;;;;;;;;;;;-2.10;99.90;;;;;;5016987;28;20364;-87
2022/12/10 02:52:17;;;;;;;;;;;-2.10;99.90;;;;;;5015974;28;19975;-83
2022/12/10 02:54:44;;;;;;;;;;;-2.10;99.90;;;;;;5015976;28;19921;-81
2022/12/10 02:57:28;;;;;;;;;;;-2.10;99.90;;;;;;5015194;28;19925;-83
2022/12/10 03:00:06;;;;;;;;;;;-2.20;99.90;;;;;;4999014;28;19921;-85
2022/12/10 03:02:31;;;;;;;;;;;-2.20;99.90;;;;;;5016138;28;19928;-81
2022/12/10 03:05:03;;;;;;;;;;;-2.20;99.90;;;;;;4999162;28;19925;-83
2022/12/10 03:07:34;;;;;;;;;;;-2.20;99.90;;;;;;4999757;28;20325;-81
2022/12/10 03:10:03;;;;;;;;;;;-2.30;99.90;;;;;;5015650;28;19967;-84
2022/12/10 03:12:32;;;;;;;;;;;-2.30;99.90;;;;;;5016209;28;19928;-82
2022/12/10 03:15:00;;;;;;;;;;;-2.30;99.90;;;;;;5014898;28;20004;-82
2022/12/10 03:17:26;;;;;;;;;;;-2.30;99.90;;;;;;5016570;28;19922;-88
2022/12/10 03:19:52;;;;;;;;;;;-2.30;99.90;;;;;;5015892;28;19921;-81
2022/12/10 03:22:19;;;;;;;;;;;-2.30;99.90;;;;;;5016599;28;19922;-82
2022/12/10 03:24:45;;;;;;;;;;;-2.40;99.90;;;;;;5015534;28;19928;-82
2022/12/10 03:27:12;;;;;;;;;;;-2.40;99.90;;;;;;5014907;28;19925;-81
2022/12/10 03:29:48;;;;;;;;;;;-2.40;99.90;;;;;;5014798;28;20000;-82
2022/12/10 03:32:15;;;;;;;;;;;-2.50;99.90;;;;;;5015732;28;19922;-81
2022/12/10 03:34:41;;;;;;;;;;;-2.40;99.90;;;;;;5015602;28;20285;-83
2022/12/10 03:37:07;;;;;;;;;;;-2.40;99.90;;;;;;5014451;28;19927;-83
2022/12/10 03:39:32;;;;;;;;;;;-2.40;99.90;;;;;;5014339;28;19973;-82
2022/12/10 03:41:58;;;;;;;;;;;-2.40;99.90;;;;;;5014567;28;19925;-81
2022/12/10 03:44:28;;;;;;;;;;;-2.40;99.90;;;;;;4998235;28;19925;-82
2022/12/10 03:46:53;;;;;;;;;;;-2.40;99.90;;;;;;5015453;28;19944;-82
2022/12/10 03:49:19;;;;;;;;;;;-2.40;99.90;;;;;;5024041;28;20361;-82
2022/12/10 03:51:44;;;;;;;;;;;-2.30;99.90;;;;;;5022333;28;20019;-82
2022/12/10 03:54:10;;;;;;;;;;;-2.30;99.90;;;;;;5019617;28;19927;-86
2022/12/10 03:56:35;;;;;;;;;;;-2.40;99.90;;;;;;5015312;28;20260;-86
2022/12/10 03:59:01;;;;;;;;;;;-2.50;99.90;;;;;;5014529;28;19921;-81
2022/12/10 04:01:26;;;;;;;;;;;-2.50;99.90;;;;;;4997950;28;19922;-82
2022/12/10 04:03:52;;;;;;;;;;;-2.40;99.90;;;;;;5014465;28;20015;-81
2022/12/10 04:06:18;;;;;;;;;;;-2.50;99.90;;;;;;5014207;28;19928;-81
2022/12/10 04:08:44;;;;;;;;;;;-2.50;99.90;;;;;;5014857;28;20054;-88
2022/12/10 04:11:10;;;;;;;;;;;-2.50;99.90;;;;;;5013900;28;19928;-81
2022/12/10 04:16:27;;;;;;;;;;;-2.60;99.90;;;;;;5031225;28;19984;-81
2022/12/10 04:18:54;;;;;;;;;;;-2.60;99.90;;;;;;5013908;28;19921;-82
2022/12/10 04:26:54;;;;;;;;;;;-2.60;99.90;;;;;;5018705;28;19922;-81
2022/12/10 04:29:27;;;;;;;;;;;-2.60;99.90;;;;;;5014246;28;19933;-88
2022/12/10 04:31:53;;;;;;;;;;;-2.60;99.90;;;;;;5013502;28;20283;-81
2022/12/10 04:34:19;;;;;;;;;;;-2.60;99.90;;;;;;5013411;28;20439;-82
2022/12/10 04:36:45;;;;;;;;;;;-2.60;99.90;;;;;;5013868;28;19961;-88
2022/12/10 04:39:11;;;;;;;;;;;-2.60;99.90;;;;;;4997618;28;19928;-82
2022/12/10 04:41:39;;;;;;;;;;;-2.60;99.90;;;;;;5013663;28;19921;-81
2022/12/10 04:44:04;;;;;;;;;;;-2.60;99.90;;;;;;5013724;28;19979;-81
2022/12/10 04:46:30;;;;;;;;;;;-2.60;99.90;;;;;;4997901;28;20396;-82
2022/12/10 04:48:56;;;;;;;;;;;-2.50;99.90;;;;;;5013188;28;19926;-82
2022/12/10 04:51:21;;;;;;;;;;;-2.70;99.90;;;;;;5014414;28;19928;-81
2022/12/10 04:53:47;;;;;;;;;;;-2.70;99.90;;;;;;5013048;28;19968;-81
2022/12/10 04:56:12;;;;;;;;;;;-2.80;99.90;;;;;;5014275;28;20008;-82
2022/12/10 04:58:38;;;;;;;;;;;-2.70;99.90;;;;;;5013308;28;19921;-81
2022/12/10 05:01:04;;;;;;;;;;;-2.70;99.90;;;;;;5014117;28;19928;-86
2022/12/10 05:03:30;;;;;;;;;;;-2.80;99.90;;;;;;5013866;28;20301;-81
2022/12/10 05:05:59;;;;;;;;;;;-2.80;99.90;;;;;;5014073;28;19944;-82
2022/12/10 05:08:25;;;;;;;;;;;-2.80;99.90;;;;;;5014150;28;19921;-82
2022/12/10 05:10:51;;;;;;;;;;;-2.90;99.90;;;;;;5012846;28;19921;-88
2022/12/10 05:13:16;;;;;;;;;;;-2.80;99.90;;;;;;5014031;28;19928;-84
2022/12/10 05:15:42;;;;;;;;;;;-2.80;99.90;;;;;;5014043;28;19921;-81
2022/12/10 05:18:07;;;;;;;;;;;-2.90;99.90;;;;;;5012817;28;19976;-82
2022/12/10 05:20:33;;;;;;;;;;;-2.90;99.90;;;;;;5015163;28;19921;-85
2022/12/10 05:25:55;;;;;;;;;;;-2.90;99.90;;;;;;5030434;28;19967;-82
2022/12/10 05:28:21;;;;;;;;;;;-2.90;99.90;;;;;;5013176;28;19929;-81
2022/12/10 05:30:47;;;;;;;;;;;-2.90;99.90;;;;;;5013029;28;19932;-85
2022/12/10 05:33:12;;;;;;;;;;;-3.00;99.90;;;;;;5012695;28;19922;-81
2022/12/10 05:35:38;;;;;;;;;;;-3.10;99.90;;;;;;4979584;28;20312;-87
2022/12/10 05:38:05;;;;;;;;;;;-3.00;99.90;;;;;;5014610;28;19921;-82
2022/12/10 05:40:34;;;;;;;;;;;-3.10;99.90;;;;;;5016964;28;19922;-81
2022/12/10 05:42:59;;;;;;;;;;;-3.10;99.90;;;;;;5016968;28;19921;-81
2022/12/10 05:45:25;;;;;;;;;;;-3.10;99.90;;;;;;5000639;28;19968;-82
2022/12/10 05:47:50;;;;;;;;;;;-3.10;99.90;;;;;;5017794;28;20060;-82
2022/12/10 05:50:19;;;;;;;;;;;-3.10;99.90;;;;;;5017708;28;20353;-82
2022/12/10 05:52:44;;;;;;;;;;;-3.20;99.90;;;;;;5017327;28;19927;-82
2022/12/10 05:55:10;;;;;;;;;;;-3.10;99.90;;;;;;5018415;28;19921;-82
2022/12/10 05:57:36;;;;;;;;;;;-3.20;99.90;;;;;;5017215;28;19971;-82
2022/12/10 06:00:03;;;;;;;;;;;-3.10;99.90;;;;;;5016772;28;19928;-82
2022/12/10 06:02:28;;;;;;;;;;;-3.10;99.90;;;;;;5017501;28;19976;-85
2022/12/10 06:04:54;;;;;;;;;;;-3.10;99.90;;;;;;5017357;28;19921;-82
2022/12/10 06:07:19;;;;;;;;;;;-3.10;99.90;;;;;;5017252;28;19922;-82
2022/12/10 06:09:45;;;;;;;;;;;-3.10;99.90;;;;;;5018271;28;19925;-82
2022/12/10 06:12:11;;;;;;;;;;;-3.10;99.90;;;;;;5017466;28;19921;-81
2022/12/10 06:14:36;;;;;;;;;;;-3.10;99.90;;;;;;5016909;28;20011;-82
2022/12/10 06:17:02;;;;;;;;;;;-2.90;99.90;;;;;;5016558;28;20373;-86
2022/12/10 06:19:27;;;;;;;;;;;-2.90;99.90;;;;;;5017197;28;19921;-82
2022/12/10 06:21:53;;;;;;;;;;;-2.80;99.90;;;;;;5016611;28;19921;-82
2022/12/10 06:24:18;;;;;;;;;;;-2.70;99.90;;;;;;5017045;28;19921;-82
2022/12/10 06:26:44;;;;;;;;;;;-2.60;99.90;;;;;;5016212;28;19921;-82
2022/12/10 06:29:09;;;;;;;;;;;-2.60;99.90;;;;;;5018973;28;19967;-88
2022/12/10 06:31:35;;;;;;;;;;;-2.60;99.90;;;;;;5022364;28;19926;-81
2022/12/10 06:34:01;;;;;;;;;;;-2.50;99.90;;;;;;5017802;28;19976;-85
2022/12/10 06:36:26;;;;;;;;;;;-2.50;99.90;;;;;;5016769;28;20395;-82
2022/12/10 06:38:52;;;;;;;;;;;-2.30;99.90;;;;;;5016522;28;20253;-82
2022/12/10 06:41:18;;;;;;;;;;;-2.40;99.90;;;;;;4999467;28;19928;-84
2022/12/10 06:43:44;;;;;;;;;;;-2.30;99.90;;;;;;5015603;28;19975;-82
2022/12/10 06:46:11;;;;;;;;;;;-2.40;99.90;;;;;;5016831;28;20386;-83
2022/12/10 06:48:36;;;;;;;;;;;-2.30;99.90;;;;;;5015700;28;19966;-81
2022/12/10 06:51:02;;;;;;;;;;;-2.30;99.90;;;;;;5015855;28;20008;-82
2022/12/10 06:53:28;;;;;;;;;;;-2.30;99.90;;;;;;5016355;28;19918;-88
2022/12/10 06:55:54;;;;;;;;;;;-2.20;99.90;;;;;;5015689;28;19924;-83
2022/12/10 06:58:19;;;;;;;;;;;-2.30;99.90;;;;;;5017238;28;19923;-81
2022/12/10 07:00:45;;;;;;;;;;;-2.30;99.90;;;;;;5016172;28;19917;-82
2022/12/10 07:03:10;;;;;;;;;;;-2.20;99.90;;;;;;5016446;28;19917;-81
2022/12/10 07:05:36;;;;;;;;;;;-2.30;99.90;;;;;;5016358;28;20336;-86
2022/12/10 07:08:01;;;;;;;;;;;-2.30;99.90;;;;;;5015667;28;19975;-81
2022/12/10 07:10:27;;;;;;;;;;;-2.30;99.90;;;;;;5015677;28;19968;-80
2022/12/10 07:12:53;;;;;;;;;;;-2.30;99.90;;;;;;5016077;28;20348;-81
2022/12/10 07:15:18;;;;;;;;;;;-2.30;99.90;;;;;;5016063;28;20523;-80
2022/12/10 07:17:44;;;;;;;;;;;-2.30;99.90;;;;;;5014916;28;19917;-82
2022/12/10 07:20:11;;;;;;;;;;;-2.30;99.90;;;;;;5015288;28;19917;-82
2022/12/10 07:22:37;;;;;;;;;;;-2.30;99.90;;;;;;5014880;28;19917;-82
2022/12/10 07:25:08;;;;;;;;;;;-2.20;99.90;;;;;;5015125;28;20265;-81
2022/12/10 07:27:34;;;;;;;;;;;-2.20;99.90;;;;;;5015270;28;19917;-84
2022/12/10 07:29:59;;;;;;;;;;;-2.20;99.90;;;;;;4999659;28;19968;-82
2022/12/10 07:32:26;;;;;;;;;;;-2.10;99.90;;;;;;5025236;28;19918;-89
2022/12/10 07:34:52;;;;;;;;;;;-2.10;99.90;;;;;;5007364;28;19940;-81
2022/12/10 07:37:17;;;;;;;;;;;-2.10;99.90;;;;;;5021700;28;20352;-81
2022/12/10 07:39:43;;;;;;;;;;;-2.00;99.90;;;;;;5017409;28;19940;-87
2022/12/10 07:42:08;;;;;;;;;;;-1.90;99.90;;;;;;5014832;28;19968;-81
2022/12/10 07:44:34;;;;;;;;;;;-2.00;99.90;;;;;;5016386;28;20009;-81
2022/12/10 07:47:00;;;;;;;;;;;-2.00;99.90;;;;;;5015090;28;19917;-82
2022/12/10 07:49:25;;;;;;;;;;;-1.90;99.90;;;;;;5016080;28;20080;-81
2022/12/10 07:51:51;;;;;;;;;;;-1.90;99.90;;;;;;5016011;28;19917;-84
2022/12/10 07:54:17;;;;;;;;;;;-2.00;99.90;;;;;;5014289;28;20272;-84
2022/12/10 07:56:43;;;;;;;;;;;-2.00;99.90;;;;;;5014132;28;19918;-83
2022/12/10 07:59:09;;;;;;;;;;;-2.00;99.90;;;;;;4998225;28;19924;-81
2022/12/10 08:01:34;;;;;;;;;;;-2.00;99.90;;;;;;5014767;28;19924;-81
2022/12/10 08:04:00;;;;;;;;;;;-2.00;99.90;;;;;;5014543;28;20224;-84
2022/12/10 08:06:26;;;;;;;;;;;-1.90;99.90;;;;;;5015326;28;19976;-87
2022/12/10 08:08:52;;;;;;;;;;;-1.90;99.90;;;;;;5015219;28;19971;-83
2022/12/10 08:11:19;;;;;;;;;;;-1.90;99.90;;;;;;5014047;28;20321;-82
2022/12/10 08:13:45;;;;;;;;;;;-1.80;99.90;;;;;;5013748;28;19923;-81
2022/12/10 08:16:13;;;;;;;;;;;-1.80;99.90;;;;;;5014180;28;20007;-81
2022/12/10 08:18:39;;;;;;;;;;;-1.80;99.90;;;;;;5015371;28;19924;-83
2022/12/10 08:21:05;;;;;;;;;;;-1.80;99.90;;;;;;5014622;28;19918;-81
2022/12/10 08:23:31;;;;;;;;;;;-1.80;99.90;;;;;;5014418;28;19918;-84
2022/12/10 08:25:56;;;;;;;;;;;-1.80;99.90;;;;;;5015153;28;19929;-84
2022/12/10 08:28:22;;;;;;;;;;;-1.80;99.90;;;;;;5015523;28;19917;-83
2022/12/10 08:30:48;;;;;;;;;;;-1.80;99.90;;;;;;5014008;28;19966;-84
2022/12/10 08:33:14;;;;;;;;;;;-1.70;99.90;;;;;;5013929;28;20415;-81
2022/12/10 08:35:39;;;;;;;;;;;-1.70;99.90;;;;;;4997801;28;20023;-82
2022/12/10 08:38:05;;;;;;;;;;;-1.70;99.90;;;;;;4999513;28;19917;-81
2022/12/10 08:40:31;;;;;;;;;;;-1.70;99.90;;;;;;5018404;28;19924;-80
2022/12/10 08:42:56;;;;;;;;;;;-1.60;99.90;;;;;;5014789;28;20352;-80
2022/12/10 08:45:22;;;;;;;;;;;-1.60;99.90;;;;;;4997243;28;19917;-81
2022/12/10 08:47:47;;;;;;;;;;;-1.60;99.90;;;;;;5014702;28;19996;-80
2022/12/10 08:50:13;;;;;;;;;;;-1.50;99.90;;;;;;5013906;28;20388;-81
2022/12/10 08:52:38;;;;;;;;;;;-1.50;99.90;;;;;;5014575;28;20271;-81
2022/12/10 08:55:04;;;;;;;;;;;-1.50;99.90;;;;;;5013256;28;19917;-81
2022/12/10 08:57:30;;;;;;;;;;;-1.50;99.90;;;;;;5015288;28;19917;-82
2022/12/10 08:59:55;;;;;;;;;;;-1.40;99.90;;;;;;4997400;28;20340;-81
2022/12/10 09:02:21;;;;;;;;;;;-1.40;99.90;;;;;;5013172;28;20337;-83
2022/12/10 09:04:49;;;;;;;;;;;-1.50;99.90;;;;;;5013334;28;20242;-84
2022/12/10 09:07:19;;;;;;;;;;;-1.40;99.90;;;;;;5014662;28;19944;-80
2022/12/10 09:09:44;;;;;;;;;;;-1.40;99.90;;;;;;5014044;28;20325;-81
2022/12/10 09:12:10;;;;;;;;;;;-1.40;99.90;;;;;;5013707;28;19925;-81
2022/12/10 09:14:38;;;;;;;;;;;-1.40;99.90;;;;;;5013962;28;19925;-81
2022/12/10 09:17:04;;;;;;;;;;;-1.40;99.90;;;;;;5013408;28;19922;-81
2022/12/10 09:19:29;;;;;;;;;;;-1.40;99.90;;;;;;5013907;28;19975;-82
2022/12/10 09:21:55;;;;;;;;;;;-1.30;99.90;;;;;;5014492;28;19922;-81
2022/12/10 09:24:20;;;;;;;;;;;-1.30;99.90;;;;;;5013619;28;20435;-80
2022/12/10 09:26:46;;;;;;;;;;;-1.30;99.90;;;;;;5020967;28;20402;-82
2022/12/10 09:29:12;;;;;;;;;;;-1.30;99.90;;;;;;5002971;28;20249;-79
2022/12/10 09:31:38;;;;;;;;;;;-1.30;99.90;;;;;;5019423;28;19929;-80
2022/12/10 09:34:04;;;;;;;;;;;-1.20;99.90;;;;;;5016968;28;20028;-81
2022/12/10 09:36:29;;;;;;;;;;;-1.20;99.90;;;;;;5016500;28;19921;-81
2022/12/10 09:38:55;;;;;;;;;;;-1.20;99.90;;;;;;5016296;28;19928;-81
2022/12/10 09:41:23;;;;;;;;;;;-1.20;99.90;;;;;;5013608;28;19928;-81
2022/12/10 09:43:49;;;;;;;;;;;-1.10;99.90;;;;;;5014074;28;20004;-82
2022/12/10 09:46:23;;;;;;;;;;;-1.20;99.90;;;;;;5013020;28;19971;-81
2022/12/10 09:49:04;;;;;;;;;;;-1.10;99.90;;;;;;4996617;28;20032;-81
2022/12/10 09:51:31;;;;;;;;;;;-1.10;99.90;;;;;;5013816;28;19922;-81
2022/12/10 09:53:58;;;;;;;;;;;-1.10;99.90;;;;;;5012794;28;20364;-80
2022/12/10 09:56:35;;;;;;;;;;;-1.10;99.90;;;;;;5029150;28;19928;-80
2022/12/10 09:59:03;;;;;;;;;;;-1.00;99.90;;;;;;5014649;28;19921;-80
2022/12/10 10:01:32;;;;;;;;;;;-1.00;99.90;;;;;;4996719;28;19921;-81
2022/12/10 10:03:57;;;;;;;;;;;-0.90;99.90;;;;;;5013658;28;19925;-81
2022/12/10 10:06:24;;;;;;;;;;;-0.90;99.90;;;;;;5013890;28;20258;-83
2022/12/10 10:08:54;;;;;;;;;;;-0.90;99.90;;;;;;5012732;28;20348;-81
2022/12/10 10:11:23;;;;;;;;;;;-0.90;99.90;;;;;;5013231;28;20012;-84
2022/12/10 10:13:54;;;;;;;;;;;-0.90;99.90;;;;;;5012575;28;19983;-81
2022/12/10 10:16:31;;;;;;;;;;;-0.90;99.90;;;;;;5013055;28;19976;-81
2022/12/10 10:19:02;;;;;;;;;;;-0.90;99.90;;;;;;4996773;28;19932;-82
2022/12/10 10:21:36;;;;;;;;;;;-0.80;99.90;;;;;;5012649;28;19922;-84
2022/12/10 10:24:02;;;;;;;;;;;-0.70;99.90;;;;;;5013177;28;19921;-82
2022/12/10 10:26:27;;;;;;;;;;;-0.70;99.90;;;;;;4999761;28;19921;-83
2022/12/10 10:28:56;;;;;;;;;;;-0.70;99.90;;;;;;5016199;28;19929;-81
2022/12/10 10:31:24;;;;;;;;;;;-0.70;99.90;;;;;;5016039;28;19921;-82
2022/12/10 10:33:57;;;;;;;;;;;-0.70;99.90;;;;;;5016991;28;19921;-81
2022/12/10 10:36:25;;;;;;;;;;;-0.70;99.90;;;;;;5017066;28;19976;-82
2022/12/10 10:38:50;;;;;;;;;;;-0.70;99.90;;;;;;5015939;28;19922;-81
2022/12/10 10:41:16;;;;;;;;;;;-0.70;99.90;;;;;;5015966;28;19925;-82
2022/12/10 10:43:44;;;;;;;;;;;-0.80;99.90;;;;;;5016900;28;19968;-81
2022/12/10 10:46:13;;;;;;;;;;;-0.60;99.90;;;;;;5000482;28;19922;-81
2022/12/10 10:48:39;;;;;;;;;;;-0.70;99.90;;;;;;5018728;28;19928;-82
2022/12/10 10:51:04;;;;;;;;;;;-0.70;99.90;;;;;;5007896;28;20008;-81
2022/12/10 10:53:51;;;;;;;;;;;-0.70;99.90;;;;;;5016370;28;20360;-81
2022/12/10 10:56:29;;;;;;;;;;;-0.70;99.90;;;;;;5016390;28;20296;-81
2022/12/10 10:58:56;;;;;;;;;;;-0.70;99.90;;;;;;5000099;28;19972;-82
2022/12/10 11:01:24;;;;;;;;;;;-0.60;99.90;;;;;;5016722;28;20024;-82
2022/12/10 11:03:52;;;;;;;;;;;-0.50;99.90;;;;;;5015875;28;19925;-81
2022/12/10 11:06:18;;;;;;;;;;;-0.60;99.90;;;;;;5015615;28;19921;-81
2022/12/10 11:08:45;;;;;;;;;;;-0.50;99.90;;;;;;5016397;28;19996;-80
2022/12/10 11:11:12;;;;;;;;;;;-0.50;99.90;;;;;;5015585;28;19979;-81
2022/12/10 11:13:38;;;;;;;;;;;-0.50;99.90;;;;;;5015315;28;20427;-82
2022/12/10 11:16:11;;;;;;;;;;;-0.50;99.90;;;;;;5018213;28;19968;-81
2022/12/10 11:18:42;;;;;;;;;;;-0.50;99.90;;;;;;5020537;28;19923;-80
2022/12/10 11:21:10;;;;;;;;;;;-0.50;99.90;;;;;;5021336;28;20245;-80
2022/12/10 11:23:38;;;;;;;;;;;-0.50;99.90;;;;;;5018150;28;20256;-81
2022/12/10 11:26:22;;;;;;;;;;;-0.50;99.90;;;;;;5015191;28;20384;-83
2022/12/10 11:29:06;;;;;;;;;;;-0.40;99.90;;;;;;4999067;28;20257;-82
2022/12/10 11:31:44;;;;;;;;;;;-0.40;99.90;;;;;;5016043;28;20442;-83
2022/12/10 11:34:26;;;;;;;;;;;-0.40;99.90;;;;;;5015087;28;19921;-83
2022/12/10 11:36:58;;;;;;;;;;;-0.40;99.90;;;;;;4997825;28;20319;-84
2022/12/10 11:39:34;;;;;;;;;;;-0.40;99.90;;;;;;4998429;28;19928;-83
2022/12/10 11:42:02;;;;;;;;;;;-0.40;99.90;;;;;;5016671;28;19922;-83
2022/12/10 11:44:40;;;;;;;;;;;-0.40;99.90;;;;;;5015014;28;20074;-84
2022/12/10 11:47:12;;;;;;;;;;;-0.30;99.90;;;;;;4998827;28;19979;-83
2022/12/10 11:49:40;;;;;;;;;;;-0.30;99.90;;;;;;5014727;28;19921;-83
2022/12/10 11:52:18;;;;;;;;;;;-0.30;99.90;;;;;;5014695;28;19925;-83
2022/12/10 11:54:53;;;;;;;;;;;-0.40;99.90;;;;;;4998838;28;19922;-87
2022/12/10 11:57:25;;;;;;;;;;;-0.30;99.90;;;;;;4998309;28;19921;-84
2022/12/10 12:00:02;;;;;;;;;;;-0.30;99.90;;;;;;4998568;28;19921;-83
2022/12/10 12:02:46;;;;;;;;;;;-0.30;99.90;;;;;;5014436;28;19921;-85
2022/12/10 12:05:32;;;;;;;;;;;-0.20;99.90;;;;;;5014593;28;19961;-82
2022/12/10 12:08:09;;;;;;;;;;;-0.20;99.90;;;;;;5003721;28;19925;-83
2022/12/10 12:10:50;;;;;;;;;;;-0.20;99.90;;;;;;4998856;28;19922;-83
2022/12/10 12:13:19;;;;;;;;;;;-0.20;99.90;;;;;;4998394;28;19984;-83
2022/12/10 12:15:44;;;;;;;;;;;-0.20;99.90;;;;;;5013618;28;19927;-82
2022/12/10 12:18:10;;;;;;;;;;;-0.20;99.90;;;;;;4998237;28;19921;-83
2022/12/10 12:20:59;;;;;;;;;;;-0.20;99.90;;;;;;4998139;28;19925;-85
2022/12/10 12:23:40;;;;;;;;;;;-0.20;99.90;;;;;;5011364;28;19928;-83
2022/12/10 12:26:32;;;;;;;;;;;-0.20;99.90;;;;;;5014188;28;19971;-83
2022/12/10 12:29:19;;;;;;;;;;;-0.20;99.90;;;;;;5013403;28;19969;-84
2022/12/10 12:31:47;;;;;;;;;;;-0.20;99.90;;;;;;4997710;28;19928;-84
2022/12/10 12:34:31;;;;;;;;;;;-0.30;99.90;;;;;;5013991;28;19921;-83
2022/12/10 12:36:57;;;;;;;;;;;-0.20;99.90;;;;;;5014737;28;20250;-83
2022/12/10 12:39:27;;;;;;;;;;;-0.10;99.90;;;;;;5014037;28;19928;-83
2022/12/10 12:41:57;;;;;;;;;;;-0.10;99.90;;;;;;5013932;28;19922;-85
2022/12/10 12:44:32;;;;;;;;;;;-0.10;99.90;;;;;;5013667;28;20360;-83
2022/12/10 12:47:02;;;;;;;;;;;-0.10;99.90;;;;;;4997961;28;20311;-82
2022/12/10 12:49:34;;;;;;;;;;;-0.10;99.90;;;;;;5013417;28;19921;-83
2022/12/10 12:52:03;;;;;;;;;;;-0.10;99.90;;;;;;5013082;28;20349;-84
2022/12/10 12:54:28;;;;;;;;;;;-0.10;99.90;;;;;;4997067;28;19925;-83
2022/12/10 12:57:00;;;;;;;;;;;-0.10;99.90;;;;;;4981535;28;19987;-84
2022/12/10 12:59:45;;;;;;;;;;;-0.10;99.90;;;;;;4997496;28;19925;-84
2022/12/10 13:02:26;;;;;;;;;;;0.00;99.90;;;;;;5016542;28;19952;-83
2022/12/10 13:04:52;;;;;;;;;;;0.00;99.90;;;;;;4999867;28;19964;-84
2022/12/10 13:07:17;;;;;;;;;;;0.10;99.90;;;;;;5013452;28;19921;-82
2022/12/10 13:09:44;;;;;;;;;;;0.20;99.90;;;;;;4997170;28;19948;-84
2022/12/10 13:12:30;;;;;;;;;;;0.10;99.90;;;;;;5014028;28;20284;-85
2022/12/10 13:15:00;;;;;;;;;;;0.00;99.90;;;;;;5025477;28;19925;-83
2022/12/10 13:17:31;;;;;;;;;;;0.10;99.90;;;;;;5014224;28;20356;-84
2022/12/10 13:20:29;;;;;;;;;;;0.10;99.90;;;;;;5013650;28;19926;-85
2022/12/10 13:22:59;;;;;;;;;;;0.00;99.90;;;;;;5017955;28;19929;-84
2022/12/10 13:25:37;;;;;;;;;;;0.00;99.90;;;;;;5013087;28;19929;-83
2022/12/10 13:28:16;;;;;;;;;;;0.10;99.90;;;;;;5012945;28;19921;-82
2022/12/10 13:30:42;;;;;;;;;;;0.10;99.90;;;;;;5014975;28;20288;-83
2022/12/10 13:33:16;;;;;;;;;;;0.00;99.90;;;;;;5013140;28;19921;-81
2022/12/10 13:35:48;;;;;;;;;;;0.10;99.90;;;;;;5014030;28;19925;-83
2022/12/10 13:38:22;;;;;;;;;;;0.10;99.90;;;;;;5013412;28;19928;-82
2022/12/10 13:46:28;;;;;;;;;;;0.20;99.90;;;;;;5014033;28;19971;-81
2022/12/10 13:48:54;;;;;;;;;;;0.20;99.90;;;;;;5013894;28;20399;-81
2022/12/10 13:51:32;;;;;;;;;;;0.20;99.90;;;;;;5012888;28;19975;-82
2022/12/10 13:54:24;;;;;;;;;;;0.20;99.90;;;;;;5013004;28;19980;-80
2022/12/10 13:57:08;;;;;;;;;;;0.10;99.90;;;;;;5012655;28;19928;-80
2022/12/10 13:59:37;;;;;;;;;;;0.10;99.90;;;;;;5015324;28;19980;-81
2022/12/10 14:02:02;;;;;;;;;;;0.10;99.90;;;;;;5016795;28;19928;-81
2022/12/10 14:04:35;;;;;;;;;;;0.00;99.90;;;;;;5016480;28;19921;-81
2022/12/10 14:07:01;;;;;;;;;;;-0.10;99.90;;;;;;5017591;28;19921;-83
2022/12/10 14:09:33;;;;;;;;;;;0.00;99.90;;;;;;5016455;28;19925;-82
2022/12/10 14:12:01;;;;;;;;;;;0.00;99.90;;;;;;5017470;28;20015;-80
2022/12/10 14:14:30;;;;;;;;;;;0.00;99.90;;;;;;5016488;28;19925;-82
2022/12/10 14:16:59;;;;;;;;;;;0.10;99.90;;;;;;5017619;28;20016;-81
2022/12/10 14:19:26;;;;;;;;;;;0.00;99.90;;;;;;5018006;28;19928;-85
2022/12/10 14:21:51;;;;;;;;;;;-0.10;99.90;;;;;;5017785;28;19921;-81
2022/12/10 14:24:28;;;;;;;;;;;-0.10;99.90;;;;;;5015982;28;19921;-81
2022/12/10 14:26:58;;;;;;;;;;;-0.20;99.90;;;;;;5017616;28;20368;-81
2022/12/10 14:29:24;;;;;;;;;;;-0.20;99.90;;;;;;5017061;28;19995;-80
2022/12/10 14:31:50;;;;;;;;;;;-0.20;99.90;;;;;;5016376;28;20338;-82
2022/12/10 14:34:21;;;;;;;;;;;-0.30;99.90;;;;;;5017035;28;20016;-80
2022/12/10 14:36:49;;;;;;;;;;;-0.20;99.90;;;;;;5017768;28;20006;-81
2022/12/10 14:39:19;;;;;;;;;;;-0.20;99.90;;;;;;5016056;28;19928;-81
2022/12/10 14:41:46;;;;;;;;;;;-0.20;99.90;;;;;;5016968;28;19921;-81
2022/12/10 14:44:13;;;;;;;;;;;-0.20;99.90;;;;;;5016933;28;19922;-82